Time;durP1;ratioP1;P1;durP2;ratioP2;P2;SDS_P1;SDS_P2;PMS_P1;PMS_P2;Temp;Humidity;BMP_temperature;BMP_pressure;BME280_temperature;BME280_humidity;BME280_pressure;Samples;Min_cycle;Max_cycle;Signal;HPM_P1;HPM_P2
2022/06/28 00:00:13;;;;;;;1.73;1.37;;;21.90;75.80;;;-142.21;100.00;112049.66;5072130;28;20205;-77
2022/06/28 00:02:43;;;;;;;2.03;1.53;;;21.90;75.90;;;-142.21;100.00;112049.66;5071482;28;20286;-77
2022/06/28 00:05:11;;;;;;;1.50;1.40;;;21.90;75.70;;;-142.21;100.00;112049.66;5072090;28;20600;-77
2022/06/28 00:07:39;;;;;;;3.33;1.67;;;21.90;75.60;;;-142.21;100.00;112049.66;5070913;28;20236;-78
2022/06/28 00:10:08;;;;;;;2.97;1.93;;;21.90;75.40;;;-142.21;100.00;112049.66;5071448;28;20255;-77
2022/06/28 00:12:36;;;;;;;1.40;1.30;;;21.90;75.50;;;-142.21;100.00;112049.66;5071361;28;20315;-77
2022/06/28 00:17:49;;;;;;;2.60;1.70;;;21.90;75.50;;;-142.21;100.00;112049.66;5071087;28;20649;-75
2022/06/28 00:20:16;;;;;;;2.53;1.80;;;21.90;75.50;;;-142.21;100.00;112049.66;5071729;28;20232;-77
2022/06/28 00:22:44;;;;;;;2.67;1.63;;;21.80;75.60;;;-142.21;100.00;112049.66;5071040;28;20208;-78
2022/06/28 00:25:12;;;;;;;1.60;1.40;;;21.80;75.50;;;-142.21;100.00;112049.66;5071908;28;20557;-78
2022/06/28 00:27:39;;;;;;;2.17;1.40;;;21.80;75.70;;;-142.21;100.00;112049.66;5070945;28;20295;-77
2022/06/28 00:30:09;;;;;;;2.77;1.63;;;21.80;75.80;;;-142.21;100.00;112049.66;5071600;28;20664;-77
2022/06/28 00:32:36;;;;;;;2.07;1.70;;;21.70;76.10;;;-142.21;100.00;112049.66;5072057;28;20256;-78
2022/06/28 00:35:07;;;;;;;3.43;2.10;;;21.70;75.80;;;-142.21;100.00;112049.66;5074751;28;20232;-78
2022/06/28 00:37:34;;;;;;;4.83;1.77;;;21.50;76.10;;;-142.21;100.00;112049.66;5071275;28;20251;-76
2022/06/28 00:40:01;;;;;;;3.13;1.80;;;21.50;76.10;;;-142.21;100.00;112049.66;5074861;28;20205;-78
2022/06/28 00:42:28;;;;;;;1.90;1.80;;;21.50;75.80;;;-142.21;100.00;112049.66;5077135;28;20240;-78
2022/06/28 00:44:57;;;;;;;5.60;1.50;;;21.40;75.80;;;-142.21;100.00;112049.66;5075251;28;20240;-79
2022/06/28 00:47:26;;;;;;;1.77;1.50;;;21.40;75.80;;;-142.21;100.00;112049.66;5071742;28;20205;-78
2022/06/28 00:49:57;;;;;;;1.53;1.43;;;21.40;75.80;;;-142.21;100.00;112049.66;5071751;28;20231;-78
2022/06/28 00:52:26;;;;;;;1.80;1.53;;;21.40;75.80;;;-142.21;100.00;112049.66;5071633;28;20215;-79
2022/06/28 00:54:54;;;;;;;2.00;1.53;;;21.40;75.70;;;-142.21;100.00;112049.66;5071720;28;20205;-79
2022/06/28 00:57:22;;;;;;;1.93;1.67;;;21.40;75.70;;;-142.21;100.00;112049.66;5071275;28;20240;-78
2022/06/28 00:59:50;;;;;;;1.57;1.47;;;21.30;75.40;;;-142.21;100.00;112049.66;5070568;28;20212;-78
2022/06/28 01:02:17;;;;;;;4.20;1.60;;;21.30;75.50;;;-142.21;100.00;112049.66;5071363;28;20320;-79
2022/06/28 01:04:44;;;;;;;1.50;1.40;;;21.20;75.50;;;-142.21;100.00;112049.66;5070769;28;20244;-78
2022/06/28 01:07:11;;;;;;;2.10;1.50;;;21.20;75.50;;;-142.21;100.00;112049.66;5071622;28;20287;-78
2022/06/28 01:09:40;;;;;;;3.73;1.60;;;21.20;75.70;;;-142.21;100.00;112049.66;5070269;28;20328;-77
2022/06/28 01:12:08;;;;;;;3.27;1.70;;;21.20;75.90;;;-142.21;100.00;112049.66;5071145;28;20248;-77
2022/06/28 01:14:35;;;;;;;1.60;1.50;;;21.10;75.80;;;-142.21;100.00;112049.66;5070530;28;20738;-79
2022/06/28 01:17:03;;;;;;;2.53;1.70;;;21.10;75.70;;;-142.21;100.00;112049.66;5072889;28;20247;-79
2022/06/28 01:19:31;;;;;;;1.57;1.40;;;21.10;75.70;;;-142.21;100.00;112049.66;5074531;28;20205;-79
2022/06/28 01:22:00;;;;;;;6.27;1.70;;;21.00;75.50;;;-142.21;100.00;112049.66;5075004;28;20297;-80
2022/06/28 01:24:29;;;;;;;1.60;1.50;;;20.90;75.50;;;-142.21;100.00;112049.66;5074973;28;20681;-78
2022/06/28 01:26:57;;;;;;;1.93;1.60;;;20.90;75.80;;;-142.21;100.00;112049.66;5054942;28;20210;-78
2022/06/28 01:29:24;;;;;;;1.87;1.60;;;20.80;76.20;;;-142.21;100.00;112049.66;5054458;28;20205;-78
2022/06/28 01:31:52;;;;;;;2.30;1.67;;;20.80;76.40;;;-142.21;100.00;112049.66;5054015;28;20292;-78
2022/06/28 01:34:21;;;;;;;5.53;1.60;;;20.70;76.10;;;-142.21;100.00;112049.66;5054803;28;20226;-78
2022/06/28 01:36:49;;;;;;;2.70;1.53;;;20.70;76.10;;;-142.21;100.00;112049.66;5054468;28;20296;-77
2022/06/28 01:39:17;;;;;;;1.50;1.40;;;20.70;76.40;;;-142.21;100.00;112049.66;5054665;28;20339;-79
2022/06/28 01:41:45;;;;;;;4.77;1.90;;;20.70;76.50;;;-142.21;100.00;112049.66;5053886;28;20201;-79
2022/06/28 01:44:13;;;;;;;1.63;1.53;;;20.70;76.60;;;-142.21;100.00;112049.66;5054181;28;20233;-78
2022/06/28 01:46:41;;;;;;;2.40;1.80;;;20.70;76.40;;;-142.21;100.00;112049.66;5053783;28;20297;-78
2022/06/28 01:49:09;;;;;;;6.53;1.30;;;20.70;76.30;;;-142.21;100.00;112049.66;5054504;28;20288;-79
2022/06/28 01:51:37;;;;;;;2.77;1.73;;;20.60;76.10;;;-142.21;100.00;112049.66;5053855;28;20301;-79
2022/06/28 01:54:04;;;;;;;2.20;1.70;;;20.60;75.90;;;-142.21;100.00;112049.66;5054222;28;20222;-79
2022/06/28 01:56:32;;;;;;;3.07;1.80;;;20.60;76.00;;;-142.21;100.00;112049.66;5054185;28;20296;-79
2022/06/28 01:59:01;;;;;;;1.80;1.60;;;20.60;75.80;;;-142.21;100.00;112049.66;5053935;28;20222;-79
2022/06/28 02:01:29;;;;;;;2.47;1.90;;;20.50;75.50;;;-142.21;100.00;112049.66;5054643;28;20248;-78
2022/06/28 02:03:56;;;;;;;6.50;2.10;;;20.50;75.70;;;-142.21;100.00;112049.66;5053930;28;20754;-79
2022/06/28 02:06:23;;;;;;;2.70;1.60;;;20.40;75.60;;;-142.21;100.00;112049.66;5054695;28;20278;-79
2022/06/28 02:08:50;;;;;;;5.37;1.60;;;20.40;75.70;;;-142.21;100.00;112049.66;5053556;28;20349;-78
2022/06/28 02:11:17;;;;;;;2.47;1.50;;;20.30;75.50;;;-142.21;100.00;112049.66;5054386;28;20210;-79
2022/06/28 02:13:45;;;;;;;5.73;2.00;;;20.40;75.70;;;-142.21;100.00;112049.66;5053218;28;20268;-78
2022/06/28 02:16:14;;;;;;;3.20;1.40;;;20.30;75.50;;;-142.21;100.00;112049.66;5053866;28;20208;-79
2022/06/28 02:18:41;;;;;;;2.07;1.40;;;20.30;75.50;;;-142.21;100.00;112049.66;5053188;28;20300;-79
2022/06/28 02:21:08;;;;;;;2.10;1.90;;;20.30;75.40;;;-142.21;100.00;112049.66;5053668;28;20686;-79
2022/06/28 02:23:36;;;;;;;4.17;1.50;;;20.20;75.20;;;-142.21;100.00;112049.66;5053247;28;20332;-78
2022/06/28 02:26:03;;;;;;;1.87;1.60;;;20.20;75.50;;;-142.21;100.00;112049.66;5066564;28;20288;-77
2022/06/28 02:28:31;;;;;;;1.50;1.40;;;20.20;75.50;;;-142.21;100.00;112049.66;5073736;28;20698;-78
2022/06/28 02:30:58;;;;;;;3.17;1.50;;;20.20;75.60;;;-142.21;100.00;112049.66;5073126;28;20212;-79
2022/06/28 02:33:26;;;;;;;4.27;1.60;;;20.20;75.50;;;-142.21;100.00;112049.66;5073280;28;20316;-79
2022/06/28 02:41:39;;;;;;;2.37;1.63;;;20.00;75.30;;;-142.21;100.00;112049.66;5050626;28;20186;-79
2022/06/28 02:44:07;;;;;;;2.87;1.63;;;20.00;75.40;;;-142.21;100.00;112049.66;5063596;28;20205;-77
2022/06/28 02:46:34;;;;;;;2.40;1.60;;;20.00;75.30;;;-142.21;100.00;112049.66;5072947;28;20208;-78
2022/06/28 02:49:03;;;;;;;2.60;1.30;;;19.90;75.20;;;-142.21;100.00;112049.66;5073082;28;20268;-78
2022/06/28 02:51:30;;;;;;;2.27;1.87;;;19.90;75.40;;;-142.21;100.00;112049.66;5073136;28;20260;-79
2022/06/28 02:53:58;;;;;;;5.30;2.03;;;19.90;75.60;;;-142.21;100.00;112049.66;5072334;28;20220;-78
2022/06/28 02:56:25;;;;;;;2.67;1.60;;;19.80;75.40;;;-142.21;100.00;112049.66;5072869;28;20241;-79
2022/06/28 02:58:52;;;;;;;3.07;1.50;;;19.80;75.30;;;-142.21;100.00;112049.66;5072445;28;20884;-76
2022/06/28 03:01:19;;;;;;;2.70;1.57;;;19.80;75.30;;;-142.21;100.00;112049.66;5073321;28;20280;-78
2022/06/28 03:03:47;;;;;;;2.13;1.70;;;19.80;75.30;;;-142.21;100.00;112049.66;5072432;28;20247;-80
2022/06/28 03:06:15;;;;;;;2.60;1.53;;;19.80;75.20;;;-142.21;100.00;112049.66;5072637;28;20241;-79
2022/06/28 03:08:42;;;;;;;1.93;1.50;;;19.80;75.10;;;-142.21;100.00;112049.66;5072051;28;20642;-79
2022/06/28 03:11:10;;;;;;;2.20;1.60;;;19.70;75.00;;;-142.21;100.00;112049.66;5072853;28;20217;-78
2022/06/28 03:13:37;;;;;;;1.90;1.70;;;19.70;75.30;;;-142.21;100.00;112049.66;5072306;28;20316;-79
2022/06/28 03:16:05;;;;;;;6.40;1.77;;;19.70;75.30;;;-142.21;100.00;112049.66;5072529;28;20323;-77
2022/06/28 03:18:32;;;;;;;4.80;1.87;;;19.70;75.40;;;-142.21;100.00;112049.66;5072557;28;20749;-78
2022/06/28 03:20:59;;;;;;;2.63;1.10;;;19.70;75.10;;;-142.21;100.00;112049.66;5071726;28;20695;-79
2022/06/28 03:23:28;;;;;;;2.97;1.70;;;19.80;75.10;;;-142.21;100.00;112049.66;5072446;28;20750;-80
2022/06/28 03:25:55;;;;;;;1.50;1.40;;;19.70;74.80;;;-142.21;100.00;112049.66;5071707;28;20244;-77
2022/06/28 03:28:22;;;;;;;1.93;1.23;;;19.60;74.60;;;-142.21;100.00;112049.66;5072314;28;20255;-78
2022/06/28 03:30:50;;;;;;;1.83;1.40;;;19.60;74.70;;;-142.21;100.00;112049.66;5072028;28;20226;-78
2022/06/28 03:33:17;;;;;;;1.67;1.30;;;19.60;74.80;;;-142.21;100.00;112049.66;5072578;28;20231;-78
2022/06/28 03:35:44;;;;;;;1.80;1.40;;;19.60;74.90;;;-142.21;100.00;112049.66;5071588;28;20371;-79
2022/06/28 03:38:11;;;;;;;1.40;1.30;;;19.50;74.80;;;-142.21;100.00;112049.66;5072194;28;20232;-77
2022/06/28 03:40:40;;;;;;;1.50;1.40;;;19.40;75.10;;;-142.21;100.00;112049.66;5071072;28;20212;-78
2022/06/28 03:43:07;;;;;;;2.10;1.80;;;19.50;75.30;;;-142.21;100.00;112049.66;5071829;28;20213;-78
2022/06/28 03:45:35;;;;;;;1.57;1.47;;;19.50;75.20;;;-142.21;100.00;112049.66;5072332;28;20201;-79
2022/06/28 03:48:04;;;;;;;3.53;1.47;;;19.40;74.90;;;-142.21;100.00;112049.66;5072350;28;20738;-78
2022/06/28 03:50:31;;;;;;;4.10;2.30;;;19.40;74.90;;;-142.21;100.00;112049.66;5072475;28;20205;-76
2022/06/28 03:52:59;;;;;;;3.03;1.83;;;19.40;74.80;;;-142.21;100.00;112049.66;5071753;28;20872;-78
2022/06/28 03:55:26;;;;;;;3.33;1.70;;;19.40;74.90;;;-142.21;100.00;112049.66;5072444;28;20209;-77
2022/06/28 03:57:55;;;;;;;2.00;1.90;;;19.40;75.00;;;-142.21;100.00;112049.66;5071310;28;20452;-78
2022/06/28 04:00:22;;;;;;;1.70;1.60;;;19.40;74.90;;;-142.21;100.00;112049.66;5072698;28;20288;-79
2022/06/28 04:02:50;;;;;;;3.43;2.00;;;19.40;74.80;;;-142.21;100.00;112049.66;5071981;28;20206;-77
2022/06/28 04:05:17;;;;;;;2.43;2.20;;;19.40;75.10;;;-142.21;100.00;112049.66;5080442;28;20254;-79
2022/06/28 04:07:44;;;;;;;2.00;1.90;;;19.40;75.00;;;-142.21;100.00;112049.66;5076195;28;20204;-77
2022/06/28 04:10:12;;;;;;;4.10;2.13;;;19.40;75.10;;;-142.21;100.00;112049.66;5074175;28;20332;-78
2022/06/28 04:12:42;;;;;;;2.97;1.77;;;19.40;74.80;;;-142.21;100.00;112049.66;5081452;28;20216;-79
2022/06/28 04:15:11;;;;;;;1.87;1.77;;;19.40;75.00;;;-142.21;100.00;112049.66;5082581;28;20327;-79
2022/06/28 04:17:38;;;;;;;2.67;1.70;;;19.40;75.00;;;-142.21;100.00;112049.66;5072270;28;20207;-79
2022/06/28 04:20:07;;;;;;;3.83;1.40;;;19.40;74.90;;;-142.21;100.00;112049.66;5071561;28;20704;-78
2022/06/28 04:22:34;;;;;;;4.53;1.87;;;19.40;75.40;;;-142.21;100.00;112049.66;5071853;28;20209;-79
2022/06/28 04:25:02;;;;;;;3.57;1.70;;;19.40;75.40;;;-142.21;100.00;112049.66;5070854;28;20493;-79
2022/06/28 04:27:29;;;;;;;3.30;1.80;;;19.40;75.50;;;-142.21;100.00;112049.66;5071585;28;20746;-78
2022/06/28 04:29:56;;;;;;;2.63;1.53;;;19.50;75.60;;;-142.21;100.00;112049.66;5070964;28;20706;-79
2022/06/28 04:32:24;;;;;;;4.80;1.97;;;19.50;75.70;;;-142.21;100.00;112049.66;5072051;28;20604;-79
2022/06/28 04:34:51;;;;;;;5.57;2.07;;;19.40;75.80;;;-142.21;100.00;112049.66;5070796;28;21045;-78
2022/06/28 04:37:19;;;;;;;6.90;2.27;;;19.50;75.80;;;-142.21;100.00;112049.66;5071432;28;20209;-79
2022/06/28 04:39:46;;;;;;;3.13;1.63;;;19.50;75.80;;;-142.21;100.00;112049.66;5070645;28;20295;-79
2022/06/28 04:42:13;;;;;;;6.47;1.70;;;19.50;75.70;;;-142.21;100.00;112049.66;5071728;28;20536;-79
2022/06/28 04:44:41;;;;;;;4.77;2.00;;;19.50;76.00;;;-142.21;100.00;112049.66;5071250;28;20236;-79
2022/06/28 04:47:09;;;;;;;2.97;1.70;;;19.50;76.10;;;-142.21;100.00;112049.66;5071628;28;20213;-78
2022/06/28 04:49:38;;;;;;;2.10;1.60;;;19.60;76.50;;;-142.21;100.00;112049.66;5071474;28;20209;-78
2022/06/28 04:52:06;;;;;;;6.43;1.93;;;19.60;76.60;;;-142.21;100.00;112049.66;5072901;28;20212;-79
2022/06/28 04:54:34;;;;;;;2.07;1.73;;;19.60;76.70;;;-142.21;100.00;112049.66;5074953;28;20256;-78
2022/06/28 04:57:01;;;;;;;3.20;1.60;;;19.70;77.00;;;-142.21;100.00;112049.66;5074953;28;20686;-79
2022/06/28 04:59:28;;;;;;;5.93;2.17;;;19.80;77.30;;;-142.21;100.00;112049.66;5075065;28;20213;-79
2022/06/28 05:01:55;;;;;;;2.90;2.60;;;19.80;77.60;;;-142.21;100.00;112049.66;5074487;28;20708;-80
2022/06/28 05:04:22;;;;;;;4.33;2.07;;;19.80;77.70;;;-142.21;100.00;112049.66;5075441;28;20861;-79
2022/06/28 05:06:51;;;;;;;2.10;1.70;;;19.90;77.80;;;-142.21;100.00;112049.66;5074647;28;20549;-79
2022/06/28 05:09:18;;;;;;;3.23;1.83;;;19.90;78.10;;;-142.21;100.00;112049.66;5074332;28;20244;-79
2022/06/28 05:11:45;;;;;;;3.77;2.23;;;20.00;78.00;;;-142.21;100.00;112049.66;5074603;28;20287;-79
2022/06/28 05:14:13;;;;;;;1.90;1.80;;;20.00;78.20;;;-142.21;100.00;112049.66;5074778;28;20638;-78
2022/06/28 05:16:40;;;;;;;4.87;2.20;;;20.10;78.20;;;-142.21;100.00;112049.66;5074635;28;20205;-79
2022/06/28 05:19:07;;;;;;;2.43;2.20;;;20.20;78.40;;;-142.21;100.00;112049.66;5074539;28;20700;-78
2022/06/28 05:21:34;;;;;;;5.00;2.60;;;20.20;78.50;;;-142.21;100.00;112049.66;5074905;28;20439;-77
2022/06/28 05:24:03;;;;;;;5.77;2.50;;;20.20;78.60;;;-142.21;100.00;112049.66;5073957;28;20240;-79
2022/06/28 05:26:30;;;;;;;6.47;2.43;;;20.30;78.80;;;-142.21;100.00;112049.66;5074532;28;20695;-79
2022/06/28 05:28:57;;;;;;;7.33;2.90;;;20.30;78.70;;;-142.21;100.00;112049.66;5074372;28;20266;-78
2022/06/28 05:31:24;;;;;;;3.00;2.40;;;20.50;78.90;;;-142.21;100.00;112049.66;5074371;28;20205;-78
2022/06/28 05:33:52;;;;;;;5.77;2.97;;;20.50;78.60;;;-142.21;100.00;112049.66;5073857;28;20311;-78
2022/06/28 05:36:19;;;;;;;3.77;2.63;;;20.60;78.60;;;-142.21;100.00;112049.66;5074331;28;20212;-79
2022/06/28 05:38:46;;;;;;;5.57;2.50;;;20.70;78.70;;;-142.21;100.00;112049.66;5073743;28;20243;-79
2022/06/28 05:41:16;;;;;;;6.80;2.73;;;20.70;78.60;;;-142.21;100.00;112049.66;5074800;28;20209;-77
2022/06/28 05:43:43;;;;;;;3.10;2.80;;;20.80;78.40;;;-142.21;100.00;112049.66;5074370;28;20706;-79
2022/06/28 05:46:10;;;;;;;4.53;3.07;;;20.80;78.40;;;-142.21;100.00;112049.66;5074734;28;20205;-79
2022/06/28 05:48:38;;;;;;;2.57;2.37;;;20.90;78.20;;;-142.21;100.00;112049.66;5074551;28;20201;-79
2022/06/28 05:51:05;;;;;;;3.30;2.43;;;20.90;78.00;;;-142.21;100.00;112049.66;5073734;28;20319;-79
2022/06/28 05:53:32;;;;;;;2.90;2.60;;;21.00;78.30;;;-142.21;100.00;112049.66;5074109;28;20205;-79
2022/06/28 05:55:59;;;;;;;3.67;2.70;;;21.10;78.10;;;-142.21;100.00;112049.66;5073435;28;20741;-77
2022/06/28 05:58:28;;;;;;;4.30;2.90;;;21.20;78.00;;;-142.21;100.00;112049.66;5074003;28;20292;-77
2022/06/28 06:00:55;;;;;;;3.97;2.70;;;21.20;77.60;;;-142.21;100.00;112049.66;5073604;28;20300;-77
2022/06/28 06:03:22;;;;;;;3.43;2.43;;;21.30;77.60;;;-142.21;100.00;112049.66;5073572;28;20212;-79
2022/06/28 06:05:50;;;;;;;3.23;2.87;;;21.40;77.70;;;-142.21;100.00;112049.66;5073142;28;20236;-79
2022/06/28 06:08:17;;;;;;;5.50;2.90;;;21.40;77.60;;;-142.21;100.00;112049.66;5073179;28;20201;-79
2022/06/28 06:10:44;;;;;;;2.47;2.20;;;21.50;77.60;;;-142.21;100.00;112049.66;5073832;28;20215;-79
2022/06/28 06:13:11;;;;;;;6.97;2.60;;;21.60;77.40;;;-142.21;100.00;112049.66;5073807;28;20205;-78
2022/06/28 06:15:40;;;;;;;3.07;2.40;;;21.70;77.20;;;-142.21;100.00;112049.66;5073481;28;20316;-78
2022/06/28 06:18:09;;;;;;;3.70;2.50;;;21.70;76.40;;;-142.21;100.00;112049.66;5073244;28;20300;-78
2022/06/28 06:20:39;;;;;;;3.67;2.40;;;21.80;76.30;;;-142.21;100.00;112049.66;5073649;28;20244;-77
2022/06/28 06:23:06;;;;;;;4.20;3.00;;;21.80;75.80;;;-142.21;100.00;112049.66;5072996;28;20235;-79
2022/06/28 06:25:33;;;;;;;2.80;2.27;;;21.90;75.90;;;-142.21;100.00;112049.66;5073469;28;20292;-79
2022/06/28 06:28:03;;;;;;;4.57;2.53;;;22.00;75.60;;;-142.21;100.00;112049.66;5072908;28;20251;-77
2022/06/28 06:30:31;;;;;;;3.00;2.03;;;22.10;75.60;;;-142.21;100.00;112049.66;5073747;28;20283;-77
2022/06/28 06:32:59;;;;;;;3.10;2.30;;;22.20;75.00;;;-142.21;100.00;112049.66;5072751;28;20216;-78
2022/06/28 06:35:27;;;;;;;4.90;2.07;;;22.30;75.10;;;-142.21;100.00;112049.66;5073205;28;20278;-77
2022/06/28 06:38:00;;;;;;;5.40;2.13;;;22.40;74.30;;;-142.21;100.00;112049.66;5072745;28;20216;-78
2022/06/28 06:40:28;;;;;;;2.77;2.00;;;22.50;74.10;;;-142.21;100.00;112049.66;5073543;28;20199;-76
2022/06/28 06:42:55;;;;;;;1.90;1.80;;;22.50;73.60;;;-142.21;100.00;112049.66;5073446;28;20220;-77
2022/06/28 06:45:23;;;;;;;2.67;1.80;;;22.60;73.50;;;-142.21;100.00;112049.66;5073334;28;20251;-77
2022/06/28 06:47:50;;;;;;;2.03;1.57;;;22.70;72.10;;;-142.21;100.00;112049.66;5072748;28;20247;-78
2022/06/28 06:50:21;;;;;;;1.90;1.70;;;22.80;71.40;;;-142.21;100.00;112049.66;5073088;28;20308;-78
2022/06/28 06:52:49;;;;;;;1.70;1.60;;;22.80;71.10;;;-142.21;100.00;112049.66;5072763;28;20663;-78
2022/06/28 06:55:16;;;;;;;2.73;1.60;;;22.90;70.00;;;-142.21;100.00;112049.66;5073190;28;20316;-77
2022/06/28 06:57:45;;;;;;;2.67;1.70;;;22.90;69.10;;;-142.21;100.00;112049.66;5073012;28;20547;-78
2022/06/28 07:00:13;;;;;;;2.37;1.73;;;22.90;68.80;;;-142.21;100.00;112049.66;5072916;28;20251;-79
2022/06/28 07:02:42;;;;;;;2.83;1.37;;;23.00;68.60;;;-142.21;100.00;112049.66;5072484;28;20208;-79
2022/06/28 07:05:10;;;;;;;2.03;1.50;;;23.10;68.50;;;-142.21;97.06;112049.66;5072081;28;20598;-79
2022/06/28 07:07:41;;;;;;;1.97;1.33;;;23.10;66.70;;;-142.21;96.36;112049.66;5072962;28;20242;-78
2022/06/28 07:10:09;;;;;;;1.23;1.20;;;23.20;66.20;;;-142.21;94.04;112049.66;5072072;28;20899;-78
2022/06/28 07:12:36;;;;;;;1.97;1.40;;;23.30;65.50;;;-142.21;93.50;112049.66;5072740;28;20629;-76
2022/06/28 07:15:04;;;;;;;2.10;1.60;;;23.30;64.50;;;-142.21;91.65;112049.66;5071490;28;20264;-77
2022/06/28 07:17:32;;;;;;;1.80;1.40;;;23.40;64.00;;;-142.21;92.30;112049.66;5072322;28;20661;-78
2022/06/28 07:19:59;;;;;;;1.80;1.70;;;23.50;63.60;;;-142.21;92.26;112049.66;5072032;28;20242;-77
2022/06/28 07:22:26;;;;;;;2.13;1.37;;;23.60;63.60;;;-142.21;91.57;112049.66;5072725;28;20571;-80
2022/06/28 07:24:56;;;;;;;1.33;1.23;;;23.60;62.60;;;-142.21;90.90;112049.66;5072055;28;20193;-77
2022/06/28 07:27:23;;;;;;;1.97;1.30;;;23.70;62.50;;;-142.21;89.93;112049.66;5072901;28;20259;-78
2022/06/28 07:29:51;;;;;;;1.43;1.30;;;23.80;62.00;;;-142.21;87.40;112049.66;5072288;28;20287;-77
2022/06/28 07:32:18;;;;;;;1.47;1.17;;;23.90;60.90;;;-142.21;87.22;112049.66;5072545;28;20340;-78
2022/06/28 07:34:45;;;;;;;0.90;0.90;;;24.00;60.60;;;-142.21;86.11;112049.66;5072065;28;20779;-78
2022/06/28 07:37:13;;;;;;;2.10;1.23;;;24.10;60.00;;;-142.21;86.10;112049.66;5075510;28;20288;-78
2022/06/28 07:39:40;;;;;;;1.30;1.20;;;24.10;60.00;;;-142.21;84.36;112049.66;5073666;28;20728;-77
2022/06/28 07:42:09;;;;;;;1.40;1.30;;;24.10;59.20;;;-142.21;82.90;112049.66;5071628;28;20291;-77
2022/06/28 07:44:36;;;;;;;2.70;1.30;;;24.20;58.60;;;-142.21;84.36;112049.66;5075192;28;20205;-79
2022/06/28 07:47:03;;;;;;;1.63;1.10;;;24.30;59.00;;;-142.21;83.39;112049.66;5074702;28;20186;-77
2022/06/28 07:54:56;;;;;;;6.43;1.97;;;24.40;58.10;;;-142.21;81.62;112049.66;5071315;28;20251;-78
2022/06/28 07:57:25;;;;;;;1.37;1.10;;;24.50;58.30;;;-142.21;80.87;112049.66;5071787;28;20223;-78
2022/06/28 07:59:52;;;;;;;2.30;1.27;;;24.60;57.80;;;-142.21;81.54;112049.66;5071527;28;20295;-79
2022/06/28 08:02:20;;;;;;;1.20;1.10;;;24.70;58.20;;;-142.21;79.97;112049.66;5071853;28;20212;-79
2022/06/28 08:04:47;;;;;;;1.20;1.00;;;24.80;57.70;;;-142.21;79.02;112049.66;5071894;28;20240;-78
2022/06/28 08:07:14;;;;;;;1.67;1.30;;;24.90;57.40;;;-142.21;80.22;112049.66;5071244;28;20245;-78
2022/06/28 08:09:41;;;;;;;1.30;1.20;;;24.90;57.20;;;-142.21;80.41;112049.66;5071645;28;20717;-79
2022/06/28 08:12:09;;;;;;;1.10;1.03;;;25.00;57.40;;;-142.21;80.93;112049.66;5071047;28;20673;-78
2022/06/28 08:14:38;;;;;;;1.80;1.13;;;25.10;57.40;;;-142.21;78.42;112049.66;5071871;28;20646;-78
2022/06/28 08:17:06;;;;;;;1.80;1.13;;;25.10;56.80;;;-142.21;80.27;112049.66;5071196;28;20572;-79
2022/06/28 08:19:34;;;;;;;1.07;1.07;;;25.20;57.50;;;-142.21;79.64;112049.66;5072106;28;20287;-78
2022/06/28 08:22:02;;;;;;;1.23;1.13;;;25.30;57.50;;;-142.21;76.28;112049.66;5071348;28;20240;-78
2022/06/28 08:24:29;;;;;;;1.57;1.30;;;25.40;56.70;;;-142.21;77.12;112049.66;5072170;28;20209;-78
2022/06/28 08:26:56;;;;;;;1.43;1.30;;;25.40;56.40;;;-142.21;77.94;112049.66;5074555;28;20205;-77
2022/06/28 08:29:23;;;;;;;1.00;0.90;;;25.50;56.60;;;-142.21;75.59;112049.66;5075625;28;20262;-77
2022/06/28 08:31:52;;;;;;;1.17;1.13;;;25.50;56.00;;;-142.21;72.17;112049.66;5075758;28;20625;-78
2022/06/28 08:34:19;;;;;;;2.77;1.10;;;25.60;55.00;;;-142.21;72.40;112049.66;5075668;28;20251;-78
2022/06/28 08:36:47;;;;;;;1.40;1.30;;;25.70;55.10;;;-142.21;73.72;112049.66;5075538;28;20260;-76
2022/06/28 08:39:14;;;;;;;2.90;1.20;;;25.70;55.10;;;-142.21;70.16;112049.66;5074796;28;20216;-79
2022/06/28 08:41:43;;;;;;;1.20;1.10;;;25.80;54.50;;;-142.21;70.87;112049.66;5075542;28;20292;-78
2022/06/28 08:44:12;;;;;;;1.70;1.27;;;25.90;54.60;;;-142.21;70.64;112049.66;5074793;28;20212;-78
2022/06/28 08:46:40;;;;;;;1.33;1.10;;;26.00;54.40;;;-142.21;62.32;112049.66;5075422;28;20205;-76
2022/06/28 08:49:18;;;;;;;2.93;1.43;;;26.00;52.80;;;-142.21;60.60;112049.66;5074857;28;20296;-77
2022/06/28 08:51:46;;;;;;;0.97;0.97;;;26.00;51.60;;;-142.21;61.58;112049.66;5075605;28;20188;-78
2022/06/28 08:54:15;;;;;;;1.03;1.03;;;26.10;52.30;;;-142.21;60.58;112049.66;5074880;28;20250;-77
2022/06/28 08:56:43;;;;;;;0.77;0.77;;;26.20;51.90;;;-142.21;59.21;112049.66;5075405;28;20668;-76
2022/06/28 08:59:11;;;;;;;1.27;0.90;;;26.30;51.70;;;-142.21;59.09;112049.66;5074789;28;20237;-77
2022/06/28 09:01:39;;;;;;;0.73;0.73;;;26.30;51.50;;;-142.21;56.80;112049.66;5074927;28;20290;-77
2022/06/28 09:04:11;;;;;;;1.33;1.20;;;26.40;50.80;;;-142.21;64.14;112049.66;5074409;28;20261;-79
2022/06/28 09:06:39;;;;;;;1.53;1.13;;;26.40;52.30;;;-142.21;58.15;112049.66;5075361;28;20217;-78
2022/06/28 09:09:06;;;;;;;1.20;1.10;;;26.50;51.10;;;-142.21;61.53;112049.66;5074010;28;20290;-78
2022/06/28 09:11:38;;;;;;;2.87;1.57;;;26.60;51.90;;;-142.21;62.85;112049.66;5075001;28;20247;-77
2022/06/28 09:14:22;;;;;;;1.17;1.00;;;26.70;52.10;;;-142.21;56.51;112049.66;5074175;28;20216;-77
2022/06/28 09:16:49;;;;;;;1.13;1.10;;;26.70;50.20;;;-142.21;58.30;112049.66;5073333;28;20213;-77
2022/06/28 09:19:18;;;;;;;1.67;1.10;;;26.80;51.00;;;-142.21;52.84;112049.66;5074223;28;20248;-78
2022/06/28 09:21:46;;;;;;;1.30;1.10;;;26.90;49.60;;;-142.21;51.06;112049.66;5075110;28;20571;-79
2022/06/28 09:24:25;;;;;;;1.07;0.80;;;26.90;49.00;;;-142.21;55.14;112049.66;5073990;28;20729;-78
2022/06/28 09:26:55;;;;;;;2.03;1.20;;;27.00;50.00;;;-142.21;53.15;112049.66;5074446;28;20283;-77
2022/06/28 09:29:22;;;;;;;1.10;1.03;;;27.00;49.50;;;-142.21;50.37;112049.66;5074517;28;20296;-76
2022/06/28 09:31:50;;;;;;;1.53;1.20;;;27.10;48.60;;;-142.21;48.11;112049.66;5074292;28;20213;-77
2022/06/28 09:34:18;;;;;;;1.53;1.10;;;27.10;47.70;;;-142.21;50.45;112049.66;5074202;28;20636;-78
2022/06/28 09:36:56;;;;;;;1.70;1.00;;;27.10;48.30;;;-142.21;50.39;112049.66;5074098;28;20261;-79
2022/06/28 09:39:28;;;;;;;2.00;1.40;;;27.20;48.30;;;-142.21;52.39;112049.66;5074767;28;20207;-78
2022/06/28 09:41:59;;;;;;;3.30;1.33;;;27.30;49.20;;;-142.21;48.81;112049.66;5074679;28;20228;-78
2022/06/28 09:44:29;;;;;;;1.40;1.30;;;27.30;47.90;;;-142.21;51.75;112049.66;5074146;28;20193;-78
2022/06/28 09:46:58;;;;;;;1.20;0.93;;;27.40;48.90;;;-142.21;47.17;112049.66;5074333;28;20295;-78
2022/06/28 09:49:30;;;;;;;1.23;1.13;;;27.40;47.30;;;-142.21;48.49;112049.66;5074218;28;20213;-77
2022/06/28 09:52:00;;;;;;;2.27;1.60;;;27.50;47.70;;;-142.21;46.00;112049.66;5074087;28;20194;-78
2022/06/28 09:54:29;;;;;;;1.50;1.13;;;27.60;47.00;;;-142.21;45.16;112049.66;5074435;28;20292;-78
2022/06/28 09:56:59;;;;;;;1.20;1.10;;;27.60;46.40;;;-142.21;44.04;112049.66;5038675;28;20229;-77
2022/06/28 09:59:29;;;;;;;2.27;1.40;;;27.60;45.70;;;-142.21;45.04;112049.66;5074431;28;20224;-78
2022/06/28 10:01:58;;;;;;;2.50;1.00;;;27.70;46.20;;;-142.21;46.42;112049.66;5074513;28;20296;-78
2022/06/28 10:04:28;;;;;;;3.10;1.53;;;27.70;46.70;;;-142.21;47.95;112049.66;5073939;28;20207;-77
2022/06/28 10:06:56;;;;;;;1.07;1.07;;;27.80;47.30;;;-142.21;45.60;112049.66;5073782;28;20186;-78
2022/06/28 10:09:24;;;;;;;1.27;0.93;;;28.00;46.50;;;-142.21;45.51;112049.66;5073579;28;20240;-77
2022/06/28 10:17:52;;;;;;;1.23;1.13;;;28.10;45.30;;;-142.21;41.32;112049.66;5051547;28;20188;-78